sensor_id;sensor_type;location;lat;lon;timestamp;P1;durP1;ratioP1;P2;durP2;ratioP2
17032;SDS011;63208;52.178;21.016;2022-11-15T00:01:30;17.40;;;9.53;;
17032;SDS011;63208;52.178;21.016;2022-11-15T00:03:57;20.37;;;10.57;;
17032;SDS011;63208;52.178;21.016;2022-11-15T00:06:24;20.30;;;10.47;;
17032;SDS011;63208;52.178;21.016;2022-11-15T00:08:52;17.67;;;10.03;;
17032;SDS011;63208;52.178;21.016;2022-11-15T00:11:19;19.53;;;10.17;;
17032;SDS011;63208;52.178;21.016;2022-11-15T00:13:46;18.83;;;10.37;;
17032;SDS011;63208;52.178;21.016;2022-11-15T00:16:14;19.80;;;10.40;;
17032;SDS011;63208;52.178;21.016;2022-11-15T00:18:44;21.10;;;10.10;;
17032;SDS011;63208;52.178;21.016;2022-11-15T00:21:13;18.20;;;10.27;;
17032;SDS011;63208;52.178;21.016;2022-11-15T00:23:41;20.83;;;9.87;;
17032;SDS011;63208;52.178;21.016;2022-11-15T00:26:10;19.90;;;10.40;;
17032;SDS011;63208;52.178;21.016;2022-11-15T00:28:39;22.60;;;11.20;;
17032;SDS011;63208;52.178;21.016;2022-11-15T00:31:08;25.47;;;11.47;;
17032;SDS011;63208;52.178;21.016;2022-11-15T00:33:37;23.30;;;11.67;;
17032;SDS011;63208;52.178;21.016;2022-11-15T00:36:07;21.27;;;11.03;;
17032;SDS011;63208;52.178;21.016;2022-11-15T00:38:36;21.07;;;10.10;;
17032;SDS011;63208;52.178;21.016;2022-11-15T00:41:05;20.30;;;11.00;;
17032;SDS011;63208;52.178;21.016;2022-11-15T00:43:33;21.53;;;12.10;;
17032;SDS011;63208;52.178;21.016;2022-11-15T00:46:08;23.07;;;11.53;;
17032;SDS011;63208;52.178;21.016;2022-11-15T00:48:36;24.57;;;12.20;;
17032;SDS011;63208;52.178;21.016;2022-11-15T00:51:03;24.87;;;12.17;;
17032;SDS011;63208;52.178;21.016;2022-11-15T00:53:31;27.77;;;11.83;;
17032;SDS011;63208;52.178;21.016;2022-11-15T00:55:59;24.37;;;11.33;;
17032;SDS011;63208;52.178;21.016;2022-11-15T00:58:26;23.47;;;12.07;;
17032;SDS011;63208;52.178;21.016;2022-11-15T01:00:53;23.77;;;12.57;;
17032;SDS011;63208;52.178;21.016;2022-11-15T01:03:20;27.97;;;12.57;;
17032;SDS011;63208;52.178;21.016;2022-11-15T01:05:48;27.90;;;12.57;;
17032;SDS011;63208;52.178;21.016;2022-11-15T01:08:15;24.43;;;12.50;;
17032;SDS011;63208;52.178;21.016;2022-11-15T01:10:45;23.63;;;11.93;;
17032;SDS011;63208;52.178;21.016;2022-11-15T01:13:12;25.30;;;11.73;;
17032;SDS011;63208;52.178;21.016;2022-11-15T01:15:40;28.87;;;12.67;;
17032;SDS011;63208;52.178;21.016;2022-11-15T01:18:07;29.77;;;12.67;;
17032;SDS011;63208;52.178;21.016;2022-11-15T01:20:38;26.73;;;12.60;;
17032;SDS011;63208;52.178;21.016;2022-11-15T01:23:06;25.83;;;12.80;;
17032;SDS011;63208;52.178;21.016;2022-11-15T01:25:33;24.27;;;12.30;;
17032;SDS011;63208;52.178;21.016;2022-11-15T01:28:02;21.57;;;11.00;;
17032;SDS011;63208;52.178;21.016;2022-11-15T01:30:29;26.30;;;12.70;;
17032;SDS011;63208;52.178;21.016;2022-11-15T01:32:56;27.13;;;11.43;;
17032;SDS011;63208;52.178;21.016;2022-11-15T01:35:24;26.10;;;11.40;;
17032;SDS011;63208;52.178;21.016;2022-11-15T01:37:51;23.13;;;11.50;;
17032;SDS011;63208;52.178;21.016;2022-11-15T01:40:18;27.60;;;12.17;;
17032;SDS011;63208;52.178;21.016;2022-11-15T01:42:45;24.13;;;11.73;;
17032;SDS011;63208;52.178;21.016;2022-11-15T01:45:14;22.97;;;11.03;;
17032;SDS011;63208;52.178;21.016;2022-11-15T01:47:42;24.83;;;12.13;;
17032;SDS011;63208;52.178;21.016;2022-11-15T01:50:15;26.70;;;12.43;;
17032;SDS011;63208;52.178;21.016;2022-11-15T01:52:45;25.13;;;11.77;;
17032;SDS011;63208;52.178;21.016;2022-11-15T01:55:13;25.13;;;10.80;;
17032;SDS011;63208;52.178;21.016;2022-11-15T01:57:45;23.03;;;10.77;;
17032;SDS011;63208;52.178;21.016;2022-11-15T02:00:16;23.27;;;11.03;;
17032;SDS011;63208;52.178;21.016;2022-11-15T02:02:43;26.33;;;12.77;;
17032;SDS011;63208;52.178;21.016;2022-11-15T02:05:11;27.87;;;12.50;;
17032;SDS011;63208;52.178;21.016;2022-11-15T02:07:38;22.93;;;11.13;;
17032;SDS011;63208;52.178;21.016;2022-11-15T02:10:07;23.97;;;11.53;;
17032;SDS011;63208;52.178;21.016;2022-11-15T02:12:36;30.80;;;12.73;;
17032;SDS011;63208;52.178;21.016;2022-11-15T02:15:04;23.23;;;11.47;;
17032;SDS011;63208;52.178;21.016;2022-11-15T02:17:37;24.50;;;11.13;;
17032;SDS011;63208;52.178;21.016;2022-11-15T02:26:33;29.13;;;12.03;;
17032;SDS011;63208;52.178;21.016;2022-11-15T02:29:26;23.83;;;11.87;;
17032;SDS011;63208;52.178;21.016;2022-11-15T02:32:06;25.87;;;11.20;;
17032;SDS011;63208;52.178;21.016;2022-11-15T02:34:43;23.93;;;12.07;;
17032;SDS011;63208;52.178;21.016;2022-11-15T02:37:20;28.17;;;11.97;;
17032;SDS011;63208;52.178;21.016;2022-11-15T02:39:54;30.77;;;12.70;;
17032;SDS011;63208;52.178;21.016;2022-11-15T02:42:28;28.63;;;13.03;;
17032;SDS011;63208;52.178;21.016;2022-11-15T02:45:17;25.97;;;12.47;;
17032;SDS011;63208;52.178;21.016;2022-11-15T02:47:51;27.37;;;12.90;;
17032;SDS011;63208;52.178;21.016;2022-11-15T02:50:21;32.03;;;13.03;;
17032;SDS011;63208;52.178;21.016;2022-11-15T02:52:51;27.50;;;12.87;;
17032;SDS011;63208;52.178;21.016;2022-11-15T02:55:26;30.03;;;13.97;;
17032;SDS011;63208;52.178;21.016;2022-11-15T02:57:58;29.90;;;12.93;;
17032;SDS011;63208;52.178;21.016;2022-11-15T03:00:45;30.53;;;13.47;;
17032;SDS011;63208;52.178;21.016;2022-11-15T03:03:30;32.00;;;13.97;;
17032;SDS011;63208;52.178;21.016;2022-11-15T03:06:10;33.87;;;13.53;;
17032;SDS011;63208;52.178;21.016;2022-11-15T03:08:47;27.37;;;13.47;;
17032;SDS011;63208;52.178;21.016;2022-11-15T03:11:23;29.10;;;13.50;;
17032;SDS011;63208;52.178;21.016;2022-11-15T03:13:53;29.93;;;14.20;;
17032;SDS011;63208;52.178;21.016;2022-11-15T03:16:26;31.20;;;14.57;;
17032;SDS011;63208;52.178;21.016;2022-11-15T03:19:03;34.53;;;14.07;;
17032;SDS011;63208;52.178;21.016;2022-11-15T03:21:33;34.47;;;14.83;;
17032;SDS011;63208;52.178;21.016;2022-11-15T03:24:03;30.67;;;13.93;;
17032;SDS011;63208;52.178;21.016;2022-11-15T03:26:33;29.73;;;13.50;;
17032;SDS011;63208;52.178;21.016;2022-11-15T03:29:06;37.47;;;14.40;;
17032;SDS011;63208;52.178;21.016;2022-11-15T03:38:01;34.23;;;14.20;;
17032;SDS011;63208;52.178;21.016;2022-11-15T03:44:04;33.87;;;13.77;;
17032;SDS011;63208;52.178;21.016;2022-11-15T03:46:46;32.40;;;14.00;;
17032;SDS011;63208;52.178;21.016;2022-11-15T04:00:41;27.77;;;11.67;;
17032;SDS011;63208;52.178;21.016;2022-11-15T04:03:11;30.13;;;12.47;;
17032;SDS011;63208;52.178;21.016;2022-11-15T04:05:43;31.40;;;13.60;;
17032;SDS011;63208;52.178;21.016;2022-11-15T04:08:47;30.60;;;11.53;;
17032;SDS011;63208;52.178;21.016;2022-11-15T04:11:16;30.63;;;12.70;;
17032;SDS011;63208;52.178;21.016;2022-11-15T04:13:59;29.67;;;12.27;;
17032;SDS011;63208;52.178;21.016;2022-11-15T04:20:02;30.00;;;11.97;;
17032;SDS011;63208;52.178;21.016;2022-11-15T04:28:56;29.10;;;12.80;;
17032;SDS011;63208;52.178;21.016;2022-11-15T04:31:52;27.27;;;11.50;;
17032;SDS011;63208;52.178;21.016;2022-11-15T04:34:21;29.73;;;12.53;;
17032;SDS011;63208;52.178;21.016;2022-11-15T04:36:51;32.67;;;12.63;;
17032;SDS011;63208;52.178;21.016;2022-11-15T04:39:35;30.57;;;11.97;;
17032;SDS011;63208;52.178;21.016;2022-11-15T04:42:05;30.43;;;12.23;;
17032;SDS011;63208;52.178;21.016;2022-11-15T04:44:33;30.90;;;12.43;;
17032;SDS011;63208;52.178;21.016;2022-11-15T04:47:01;30.00;;;13.10;;
17032;SDS011;63208;52.178;21.016;2022-11-15T04:49:29;31.27;;;12.53;;
17032;SDS011;63208;52.178;21.016;2022-11-15T04:52:00;32.20;;;12.70;;
17032;SDS011;63208;52.178;21.016;2022-11-15T04:54:28;30.90;;;12.17;;
17032;SDS011;63208;52.178;21.016;2022-11-15T04:56:56;30.17;;;12.33;;
17032;SDS011;63208;52.178;21.016;2022-11-15T04:59:28;32.93;;;12.33;;
17032;SDS011;63208;52.178;21.016;2022-11-15T05:02:17;29.43;;;12.63;;
17032;SDS011;63208;52.178;21.016;2022-11-15T05:05:15;27.30;;;12.37;;
17032;SDS011;63208;52.178;21.016;2022-11-15T05:07:43;29.10;;;12.30;;
17032;SDS011;63208;52.178;21.016;2022-11-15T05:10:10;31.13;;;11.77;;
17032;SDS011;63208;52.178;21.016;2022-11-15T05:12:38;32.63;;;13.83;;
17032;SDS011;63208;52.178;21.016;2022-11-15T05:18:28;34.17;;;12.77;;
17032;SDS011;63208;52.178;21.016;2022-11-15T05:21:20;32.37;;;11.80;;
17032;SDS011;63208;52.178;21.016;2022-11-15T05:23:53;30.07;;;11.93;;
17032;SDS011;63208;52.178;21.016;2022-11-15T05:26:22;31.73;;;12.80;;
17032;SDS011;63208;52.178;21.016;2022-11-15T05:28:52;28.57;;;11.40;;
17032;SDS011;63208;52.178;21.016;2022-11-15T05:31:25;32.43;;;12.60;;
17032;SDS011;63208;52.178;21.016;2022-11-15T05:40:24;30.43;;;11.57;;
17032;SDS011;63208;52.178;21.016;2022-11-15T05:42:52;29.60;;;12.33;;
17032;SDS011;63208;52.178;21.016;2022-11-15T05:45:19;29.03;;;12.43;;
17032;SDS011;63208;52.178;21.016;2022-11-15T05:47:58;31.13;;;13.20;;
17032;SDS011;63208;52.178;21.016;2022-11-15T05:50:36;32.97;;;13.27;;
17032;SDS011;63208;52.178;21.016;2022-11-15T05:55:43;32.57;;;13.40;;
17032;SDS011;63208;52.178;21.016;2022-11-15T05:58:44;33.27;;;11.67;;
17032;SDS011;63208;52.178;21.016;2022-11-15T06:03:47;29.97;;;12.27;;
17032;SDS011;63208;52.178;21.016;2022-11-15T06:09:31;31.27;;;11.10;;
17032;SDS011;63208;52.178;21.016;2022-11-15T06:15:01;36.80;;;13.10;;
17032;SDS011;63208;52.178;21.016;2022-11-15T06:17:29;32.57;;;12.07;;
17032;SDS011;63208;52.178;21.016;2022-11-15T06:20:06;29.17;;;11.77;;
17032;SDS011;63208;52.178;21.016;2022-11-15T06:22:34;32.03;;;11.73;;
17032;SDS011;63208;52.178;21.016;2022-11-15T06:25:03;32.47;;;12.50;;
17032;SDS011;63208;52.178;21.016;2022-11-15T06:33:37;28.23;;;10.53;;
17032;SDS011;63208;52.178;21.016;2022-11-15T06:36:15;33.40;;;11.73;;
17032;SDS011;63208;52.178;21.016;2022-11-15T06:44:41;30.53;;;12.27;;
17032;SDS011;63208;52.178;21.016;2022-11-15T06:47:15;31.47;;;11.93;;
17032;SDS011;63208;52.178;21.016;2022-11-15T06:58:13;27.30;;;11.40;;
17032;SDS011;63208;52.178;21.016;2022-11-15T07:00:43;29.50;;;11.33;;
17032;SDS011;63208;52.178;21.016;2022-11-15T07:03:11;27.07;;;10.57;;
17032;SDS011;63208;52.178;21.016;2022-11-15T07:05:38;29.63;;;11.37;;
17032;SDS011;63208;52.178;21.016;2022-11-15T07:08:06;26.77;;;10.93;;
17032;SDS011;63208;52.178;21.016;2022-11-15T07:10:37;30.53;;;11.57;;
17032;SDS011;63208;52.178;21.016;2022-11-15T07:13:13;27.87;;;10.87;;
17032;SDS011;63208;52.178;21.016;2022-11-15T07:15:44;30.97;;;10.93;;
17032;SDS011;63208;52.178;21.016;2022-11-15T07:18:11;27.57;;;10.77;;
17032;SDS011;63208;52.178;21.016;2022-11-15T07:20:48;26.00;;;9.90;;
17032;SDS011;63208;52.178;21.016;2022-11-15T07:23:16;26.60;;;10.67;;
17032;SDS011;63208;52.178;21.016;2022-11-15T07:25:45;26.00;;;10.67;;
17032;SDS011;63208;52.178;21.016;2022-11-15T07:28:28;24.97;;;9.70;;
17032;SDS011;63208;52.178;21.016;2022-11-15T07:30:57;23.20;;;10.77;;
17032;SDS011;63208;52.178;21.016;2022-11-15T07:33:33;26.03;;;10.33;;
17032;SDS011;63208;52.178;21.016;2022-11-15T07:42:46;23.30;;;8.73;;
17032;SDS011;63208;52.178;21.016;2022-11-15T07:45:21;22.43;;;10.00;;
17032;SDS011;63208;52.178;21.016;2022-11-15T07:47:52;20.00;;;9.70;;
17032;SDS011;63208;52.178;21.016;2022-11-15T07:53:44;22.70;;;9.23;;
17032;SDS011;63208;52.178;21.016;2022-11-15T07:56:31;22.80;;;8.80;;
17032;SDS011;63208;52.178;21.016;2022-11-15T07:59:26;21.13;;;10.27;;
17032;SDS011;63208;52.178;21.016;2022-11-15T08:02:18;16.87;;;8.17;;
17032;SDS011;63208;52.178;21.016;2022-11-15T08:05:01;25.53;;;10.10;;
17032;SDS011;63208;52.178;21.016;2022-11-15T08:13:37;18.63;;;9.30;;
17032;SDS011;63208;52.178;21.016;2022-11-15T08:16:08;25.50;;;10.70;;
17032;SDS011;63208;52.178;21.016;2022-11-15T08:21:04;20.63;;;9.87;;
17032;SDS011;63208;52.178;21.016;2022-11-15T08:23:41;17.13;;;8.83;;
17032;SDS011;63208;52.178;21.016;2022-11-15T08:32:34;22.07;;;9.73;;
17032;SDS011;63208;52.178;21.016;2022-11-15T08:35:02;24.47;;;9.70;;
17032;SDS011;63208;52.178;21.016;2022-11-15T08:37:32;21.80;;;9.10;;
17032;SDS011;63208;52.178;21.016;2022-11-15T08:43:01;16.07;;;8.10;;
17032;SDS011;63208;52.178;21.016;2022-11-15T08:45:47;26.17;;;9.70;;
17032;SDS011;63208;52.178;21.016;2022-11-15T08:51:09;23.50;;;9.77;;
17032;SDS011;63208;52.178;21.016;2022-11-15T08:53:38;20.03;;;9.70;;
17032;SDS011;63208;52.178;21.016;2022-11-15T08:56:06;21.90;;;9.43;;
17032;SDS011;63208;52.178;21.016;2022-11-15T09:01:26;22.27;;;10.80;;
17032;SDS011;63208;52.178;21.016;2022-11-15T09:03:54;22.30;;;10.20;;
17032;SDS011;63208;52.178;21.016;2022-11-15T09:06:21;19.20;;;9.63;;
17032;SDS011;63208;52.178;21.016;2022-11-15T09:08:50;25.60;;;10.87;;
17032;SDS011;63208;52.178;21.016;2022-11-15T09:14:20;20.87;;;10.33;;
17032;SDS011;63208;52.178;21.016;2022-11-15T09:16:47;20.43;;;10.27;;
17032;SDS011;63208;52.178;21.016;2022-11-15T09:19:17;19.47;;;9.40;;
17032;SDS011;63208;52.178;21.016;2022-11-15T09:21:49;21.57;;;10.20;;
17032;SDS011;63208;52.178;21.016;2022-11-15T09:30:23;25.77;;;10.80;;
17032;SDS011;63208;52.178;21.016;2022-11-15T09:33:19;27.40;;;10.63;;
17032;SDS011;63208;52.178;21.016;2022-11-15T09:35:49;23.97;;;11.37;;
17032;SDS011;63208;52.178;21.016;2022-11-15T09:38:19;23.23;;;10.20;;
17032;SDS011;63208;52.178;21.016;2022-11-15T09:40:47;23.40;;;10.23;;
17032;SDS011;63208;52.178;21.016;2022-11-15T09:43:32;24.83;;;10.80;;
17032;SDS011;63208;52.178;21.016;2022-11-15T09:49:30;25.03;;;10.47;;
17032;SDS011;63208;52.178;21.016;2022-11-15T09:52:07;24.10;;;10.37;;
17032;SDS011;63208;52.178;21.016;2022-11-15T09:54:50;26.60;;;10.30;;
17032;SDS011;63208;52.178;21.016;2022-11-15T09:57:19;26.30;;;11.17;;
17032;SDS011;63208;52.178;21.016;2022-11-15T09:59:52;21.27;;;10.27;;
17032;SDS011;63208;52.178;21.016;2022-11-15T10:02:38;25.17;;;10.77;;
17032;SDS011;63208;52.178;21.016;2022-11-15T10:05:19;25.80;;;10.93;;
17032;SDS011;63208;52.178;21.016;2022-11-15T10:07:50;23.53;;;11.60;;
17032;SDS011;63208;52.178;21.016;2022-11-15T10:13:50;24.23;;;10.97;;
17032;SDS011;63208;52.178;21.016;2022-11-15T10:19:53;25.23;;;11.40;;
17032;SDS011;63208;52.178;21.016;2022-11-15T10:22:49;26.63;;;10.87;;
17032;SDS011;63208;52.178;21.016;2022-11-15T10:31:50;20.60;;;10.57;;
17032;SDS011;63208;52.178;21.016;2022-11-15T10:34:19;20.00;;;10.07;;
17032;SDS011;63208;52.178;21.016;2022-11-15T10:36:53;24.87;;;11.43;;
17032;SDS011;63208;52.178;21.016;2022-11-15T10:39:25;21.20;;;10.33;;
17032;SDS011;63208;52.178;21.016;2022-11-15T10:42:15;23.10;;;10.97;;
17032;SDS011;63208;52.178;21.016;2022-11-15T10:44:55;22.97;;;10.83;;
17032;SDS011;63208;52.178;21.016;2022-11-15T10:47:23;25.53;;;11.27;;
17032;SDS011;63208;52.178;21.016;2022-11-15T10:56:25;25.17;;;11.30;;
17032;SDS011;63208;52.178;21.016;2022-11-15T11:07:43;25.63;;;11.57;;
17032;SDS011;63208;52.178;21.016;2022-11-15T11:13:31;27.03;;;11.87;;
17032;SDS011;63208;52.178;21.016;2022-11-15T11:19:31;27.87;;;13.30;;
17032;SDS011;63208;52.178;21.016;2022-11-15T11:22:59;27.70;;;11.60;;
17032;SDS011;63208;52.178;21.016;2022-11-15T11:26:10;26.40;;;12.17;;
17032;SDS011;63208;52.178;21.016;2022-11-15T11:29:00;28.50;;;12.67;;
17032;SDS011;63208;52.178;21.016;2022-11-15T11:31:35;27.17;;;12.80;;
17032;SDS011;63208;52.178;21.016;2022-11-15T11:40:28;25.07;;;11.80;;
17032;SDS011;63208;52.178;21.016;2022-11-15T11:43:05;27.73;;;13.27;;
17032;SDS011;63208;52.178;21.016;2022-11-15T11:45:58;26.57;;;12.53;;
17032;SDS011;63208;52.178;21.016;2022-11-15T11:48:41;27.00;;;13.27;;
17032;SDS011;63208;52.178;21.016;2022-11-15T11:51:14;30.40;;;12.97;;
17032;SDS011;63208;52.178;21.016;2022-11-15T11:54:03;27.90;;;12.70;;
17032;SDS011;63208;52.178;21.016;2022-11-15T11:56:37;28.53;;;14.30;;
17032;SDS011;63208;52.178;21.016;2022-11-15T11:59:10;26.07;;;12.70;;
17032;SDS011;63208;52.178;21.016;2022-11-15T12:01:44;27.03;;;12.80;;
17032;SDS011;63208;52.178;21.016;2022-11-15T12:21:06;32.67;;;14.03;;
17032;SDS011;63208;52.178;21.016;2022-11-15T12:41:26;26.90;;;13.03;;
17032;SDS011;63208;52.178;21.016;2022-11-15T12:43:57;27.57;;;13.60;;
17032;SDS011;63208;52.178;21.016;2022-11-15T12:55:48;33.50;;;13.73;;
17032;SDS011;63208;52.178;21.016;2022-11-15T13:14:07;29.03;;;12.97;;
17032;SDS011;63208;52.178;21.016;2022-11-15T13:17:31;33.03;;;14.07;;
17032;SDS011;63208;52.178;21.016;2022-11-15T13:20:17;29.00;;;14.17;;
17032;SDS011;63208;52.178;21.016;2022-11-15T13:23:02;32.37;;;14.97;;
17032;SDS011;63208;52.178;21.016;2022-11-15T13:25:50;33.13;;;15.13;;
17032;SDS011;63208;52.178;21.016;2022-11-15T13:28:42;32.73;;;15.77;;
17032;SDS011;63208;52.178;21.016;2022-11-15T13:31:25;34.77;;;14.67;;
17032;SDS011;63208;52.178;21.016;2022-11-15T13:34:24;32.03;;;14.80;;
17032;SDS011;63208;52.178;21.016;2022-11-15T13:37:04;34.83;;;15.57;;
17032;SDS011;63208;52.178;21.016;2022-11-15T13:39:39;35.17;;;15.33;;
17032;SDS011;63208;52.178;21.016;2022-11-15T13:42:10;37.13;;;16.07;;
17032;SDS011;63208;52.178;21.016;2022-11-15T13:44:54;32.33;;;14.57;;
17032;SDS011;63208;52.178;21.016;2022-11-15T13:47:33;34.30;;;16.57;;
17032;SDS011;63208;52.178;21.016;2022-11-15T13:50:01;32.30;;;15.33;;
17032;SDS011;63208;52.178;21.016;2022-11-15T13:52:31;35.20;;;16.47;;
17032;SDS011;63208;52.178;21.016;2022-11-15T13:55:05;33.93;;;14.67;;
17032;SDS011;63208;52.178;21.016;2022-11-15T13:58:04;34.63;;;15.30;;
17032;SDS011;63208;52.178;21.016;2022-11-15T14:00:35;37.17;;;16.33;;
17032;SDS011;63208;52.178;21.016;2022-11-15T14:03:12;32.07;;;15.80;;
17032;SDS011;63208;52.178;21.016;2022-11-15T14:08:21;34.70;;;15.87;;
17032;SDS011;63208;52.178;21.016;2022-11-15T14:11:05;36.47;;;17.00;;
17032;SDS011;63208;52.178;21.016;2022-11-15T14:16:53;33.10;;;14.97;;
17032;SDS011;63208;52.178;21.016;2022-11-15T14:19:46;32.67;;;15.50;;
17032;SDS011;63208;52.178;21.016;2022-11-15T14:22:23;34.83;;;16.23;;
17032;SDS011;63208;52.178;21.016;2022-11-15T14:27:32;35.43;;;15.17;;
17032;SDS011;63208;52.178;21.016;2022-11-15T14:35:43;35.40;;;16.13;;
17032;SDS011;63208;52.178;21.016;2022-11-15T14:41:37;35.43;;;15.13;;
17032;SDS011;63208;52.178;21.016;2022-11-15T14:44:04;36.10;;;17.03;;
17032;SDS011;63208;52.178;21.016;2022-11-15T14:47:04;37.30;;;15.67;;
17032;SDS011;63208;52.178;21.016;2022-11-15T14:56:17;33.77;;;16.10;;
17032;SDS011;63208;52.178;21.016;2022-11-15T14:58:44;34.73;;;15.23;;
17032;SDS011;63208;52.178;21.016;2022-11-15T15:01:12;34.63;;;15.90;;
17032;SDS011;63208;52.178;21.016;2022-11-15T15:09:50;36.13;;;16.87;;
17032;SDS011;63208;52.178;21.016;2022-11-15T15:22:01;35.63;;;15.30;;
17032;SDS011;63208;52.178;21.016;2022-11-15T15:27:10;32.43;;;14.93;;
17032;SDS011;63208;52.178;21.016;2022-11-15T15:30:07;41.13;;;17.20;;
17032;SDS011;63208;52.178;21.016;2022-11-15T15:32:38;36.73;;;16.80;;
17032;SDS011;63208;52.178;21.016;2022-11-15T15:35:07;35.27;;;16.13;;
17032;SDS011;63208;52.178;21.016;2022-11-15T15:37:45;36.87;;;15.80;;
17032;SDS011;63208;52.178;21.016;2022-11-15T15:46:08;37.50;;;16.00;;
17032;SDS011;63208;52.178;21.016;2022-11-15T15:48:51;38.40;;;16.27;;
17032;SDS011;63208;52.178;21.016;2022-11-15T15:51:18;35.70;;;15.43;;
17032;SDS011;63208;52.178;21.016;2022-11-15T15:53:58;42.90;;;17.90;;
17032;SDS011;63208;52.178;21.016;2022-11-15T15:56:26;41.00;;;17.83;;
17032;SDS011;63208;52.178;21.016;2022-11-15T15:58:53;39.20;;;16.23;;
17032;SDS011;63208;52.178;21.016;2022-11-15T16:01:22;38.87;;;16.87;;
17032;SDS011;63208;52.178;21.016;2022-11-15T16:03:51;42.93;;;17.87;;
17032;SDS011;63208;52.178;21.016;2022-11-15T16:06:31;42.27;;;16.70;;
17032;SDS011;63208;52.178;21.016;2022-11-15T16:09:01;44.97;;;16.67;;
17032;SDS011;63208;52.178;21.016;2022-11-15T16:11:30;39.53;;;16.13;;
17032;SDS011;63208;52.178;21.016;2022-11-15T16:13:58;37.60;;;16.47;;
17032;SDS011;63208;52.178;21.016;2022-11-15T16:16:27;38.80;;;16.63;;
17032;SDS011;63208;52.178;21.016;2022-11-15T16:19:02;37.43;;;15.97;;
17032;SDS011;63208;52.178;21.016;2022-11-15T16:21:33;43.93;;;17.43;;
17032;SDS011;63208;52.178;21.016;2022-11-15T16:24:00;38.63;;;15.87;;
17032;SDS011;63208;52.178;21.016;2022-11-15T16:29:16;37.57;;;15.33;;
17032;SDS011;63208;52.178;21.016;2022-11-15T16:31:46;43.07;;;16.93;;
17032;SDS011;63208;52.178;21.016;2022-11-15T16:34:13;36.83;;;16.03;;
17032;SDS011;63208;52.178;21.016;2022-11-15T16:39:20;34.63;;;15.73;;
17032;SDS011;63208;52.178;21.016;2022-11-15T16:49:03;33.37;;;14.23;;
17032;SDS011;63208;52.178;21.016;2022-11-15T16:54:55;40.63;;;15.93;;
17032;SDS011;63208;52.178;21.016;2022-11-15T17:00:24;37.47;;;16.27;;
17032;SDS011;63208;52.178;21.016;2022-11-15T17:02:57;39.13;;;15.40;;
17032;SDS011;63208;52.178;21.016;2022-11-15T17:05:47;32.63;;;13.83;;
17032;SDS011;63208;52.178;21.016;2022-11-15T17:08:45;36.20;;;13.87;;
17032;SDS011;63208;52.178;21.016;2022-11-15T17:11:40;34.53;;;14.10;;
17032;SDS011;63208;52.178;21.016;2022-11-15T17:14:08;35.97;;;15.30;;
17032;SDS011;63208;52.178;21.016;2022-11-15T17:16:39;33.77;;;14.83;;
17032;SDS011;63208;52.178;21.016;2022-11-15T17:21:54;33.83;;;14.43;;
17032;SDS011;63208;52.178;21.016;2022-11-15T17:24:21;37.33;;;15.23;;
17032;SDS011;63208;52.178;21.016;2022-11-15T17:26:48;33.40;;;13.27;;
17032;SDS011;63208;52.178;21.016;2022-11-15T17:32:39;37.57;;;15.20;;
17032;SDS011;63208;52.178;21.016;2022-11-15T17:35:25;39.83;;;15.90;;
17032;SDS011;63208;52.178;21.016;2022-11-15T17:38:15;39.60;;;14.90;;
17032;SDS011;63208;52.178;21.016;2022-11-15T17:40:42;33.10;;;14.57;;
17032;SDS011;63208;52.178;21.016;2022-11-15T17:43:10;41.13;;;16.07;;
17032;SDS011;63208;52.178;21.016;2022-11-15T17:45:39;40.63;;;16.80;;
17032;SDS011;63208;52.178;21.016;2022-11-15T17:48:12;37.57;;;14.83;;
17032;SDS011;63208;52.178;21.016;2022-11-15T17:54:07;39.00;;;14.63;;
17032;SDS011;63208;52.178;21.016;2022-11-15T17:57:02;36.63;;;14.97;;
17032;SDS011;63208;52.178;21.016;2022-11-15T18:03:07;41.93;;;15.83;;
17032;SDS011;63208;52.178;21.016;2022-11-15T18:05:34;44.07;;;15.33;;
17032;SDS011;63208;52.178;21.016;2022-11-15T18:08:16;45.60;;;16.13;;
17032;SDS011;63208;52.178;21.016;2022-11-15T18:21:04;41.43;;;15.93;;
17032;SDS011;63208;52.178;21.016;2022-11-15T18:23:33;42.47;;;15.97;;
17032;SDS011;63208;52.178;21.016;2022-11-15T18:26:01;41.70;;;15.77;;
17032;SDS011;63208;52.178;21.016;2022-11-15T18:35:57;35.33;;;13.23;;
17032;SDS011;63208;52.178;21.016;2022-11-15T18:38:33;34.07;;;13.03;;
17032;SDS011;63208;52.178;21.016;2022-11-15T18:43:53;33.40;;;12.87;;
17032;SDS011;63208;52.178;21.016;2022-11-15T18:49:43;31.77;;;11.90;;
17032;SDS011;63208;52.178;21.016;2022-11-15T18:52:24;27.50;;;11.20;;
17032;SDS011;63208;52.178;21.016;2022-11-15T19:01:06;25.73;;;11.93;;
17032;SDS011;63208;52.178;21.016;2022-11-15T19:03:39;25.07;;;10.87;;
17032;SDS011;63208;52.178;21.016;2022-11-15T19:06:09;28.30;;;11.43;;
17032;SDS011;63208;52.178;21.016;2022-11-15T19:08:38;22.87;;;10.40;;
17032;SDS011;63208;52.178;21.016;2022-11-15T19:11:09;24.20;;;10.20;;
17032;SDS011;63208;52.178;21.016;2022-11-15T19:16:33;21.17;;;9.70;;
17032;SDS011;63208;52.178;21.016;2022-11-15T19:19:02;24.57;;;11.03;;
17032;SDS011;63208;52.178;21.016;2022-11-15T19:21:31;25.53;;;10.87;;
17032;SDS011;63208;52.178;21.016;2022-11-15T19:23:58;24.93;;;10.80;;
17032;SDS011;63208;52.178;21.016;2022-11-15T19:26:28;24.33;;;10.20;;
17032;SDS011;63208;52.178;21.016;2022-11-15T19:28:55;21.73;;;10.03;;
17032;SDS011;63208;52.178;21.016;2022-11-15T19:31:24;26.13;;;10.70;;
17032;SDS011;63208;52.178;21.016;2022-11-15T19:36:50;20.90;;;8.73;;
17032;SDS011;63208;52.178;21.016;2022-11-15T19:39:17;21.57;;;10.67;;
17032;SDS011;63208;52.178;21.016;2022-11-15T19:41:46;22.53;;;9.93;;
17032;SDS011;63208;52.178;21.016;2022-11-15T19:44:14;26.30;;;9.47;;
17032;SDS011;63208;52.178;21.016;2022-11-15T19:46:42;23.03;;;9.63;;
17032;SDS011;63208;52.178;21.016;2022-11-15T19:49:09;21.90;;;10.30;;
17032;SDS011;63208;52.178;21.016;2022-11-15T19:54:25;23.20;;;9.50;;
17032;SDS011;63208;52.178;21.016;2022-11-15T19:56:55;27.20;;;10.07;;
17032;SDS011;63208;52.178;21.016;2022-11-15T19:59:32;23.47;;;9.53;;
17032;SDS011;63208;52.178;21.016;2022-11-15T20:01:59;27.20;;;10.03;;
17032;SDS011;63208;52.178;21.016;2022-11-15T20:04:26;25.13;;;10.23;;
17032;SDS011;63208;52.178;21.016;2022-11-15T20:06:54;24.03;;;10.50;;
17032;SDS011;63208;52.178;21.016;2022-11-15T20:19:12;21.33;;;9.20;;
17032;SDS011;63208;52.178;21.016;2022-11-15T20:24:20;18.20;;;8.67;;
17032;SDS011;63208;52.178;21.016;2022-11-15T20:26:47;21.10;;;9.30;;
17032;SDS011;63208;52.178;21.016;2022-11-15T20:29:14;15.10;;;8.07;;
17032;SDS011;63208;52.178;21.016;2022-11-15T20:31:43;19.97;;;9.43;;
17032;SDS011;63208;52.178;21.016;2022-11-15T20:34:10;19.37;;;9.30;;
17032;SDS011;63208;52.178;21.016;2022-11-15T20:39:39;21.20;;;10.67;;
17032;SDS011;63208;52.178;21.016;2022-11-15T20:42:06;22.47;;;10.30;;
17032;SDS011;63208;52.178;21.016;2022-11-15T20:44:34;21.03;;;9.27;;
17032;SDS011;63208;52.178;21.016;2022-11-15T20:47:04;21.47;;;8.87;;
17032;SDS011;63208;52.178;21.016;2022-11-15T20:49:31;20.07;;;9.63;;